createdAt,value
2023-07-27T00:01:44.011Z,100924.47
2023-07-27T00:04:10.543Z,100927.19
2023-07-27T00:06:37.210Z,100928.25
2023-07-27T00:09:03.953Z,100929.09
2023-07-27T00:11:30.703Z,100929.09
2023-07-27T00:13:57.262Z,100928.25
2023-07-27T00:16:23.793Z,100925.72
2023-07-27T00:18:50.288Z,100936.47
2023-07-27T00:21:16.771Z,100934.56
2023-07-27T00:23:44.467Z,100932.03
2023-07-27T00:26:10.960Z,100934.78
2023-07-27T00:28:37.410Z,100933.09
2023-07-27T00:31:04.340Z,100935.00
2023-07-27T00:33:30.767Z,100937.72
2023-07-27T00:35:57.797Z,100936.88
2023-07-27T00:38:24.287Z,100939.63
2023-07-27T00:40:51.024Z,100937.72
2023-07-27T00:43:17.612Z,100945.94
2023-07-27T00:45:44.151Z,100940.47
2023-07-27T00:48:10.947Z,100945.13
2023-07-27T00:50:38.289Z,100941.53
2023-07-27T00:53:06.880Z,100935.22
2023-07-27T00:55:33.496Z,100925.31
2023-07-27T00:58:00.432Z,100927.19
2023-07-27T01:00:27.458Z,100936.28
2023-07-27T01:02:54.233Z,100926.16
2023-07-27T01:05:21.063Z,100915.38
2023-07-27T01:07:47.544Z,100921.69
2023-07-27T01:10:13.977Z,100918.13
2023-07-27T01:12:40.791Z,100919.81
2023-07-27T01:15:18.973Z,100921.91
2023-07-27T01:17:47.579Z,100920.00
2023-07-27T01:20:14.148Z,100920.00
2023-07-27T01:22:51.267Z,100918.34
2023-07-27T01:25:36.511Z,100913.91
2023-07-27T01:28:14.034Z,100921.50
2023-07-27T01:30:50.809Z,100925.06
2023-07-27T01:33:18.811Z,100920.44
2023-07-27T01:36:05.601Z,100920.66
2023-07-27T01:38:33.034Z,100925.91
2023-07-27T01:41:00.481Z,100916.84
2023-07-27T01:43:27.845Z,100916.00
2023-07-27T01:45:55.463Z,100920.44
2023-07-27T01:48:23.272Z,100927.81
2023-07-27T01:50:51.656Z,100919.59
2023-07-27T01:53:19.448Z,100917.69
2023-07-27T01:55:47.224Z,100919.41
2023-07-27T01:58:15.470Z,100920.44
2023-07-27T02:00:42.826Z,100924.03
2023-07-27T02:03:10.566Z,100918.56
2023-07-27T02:05:37.325Z,100916.84
2023-07-27T02:08:03.861Z,100919.59
2023-07-27T02:10:32.129Z,100907.78
2023-07-27T02:13:15.990Z,100904.22
2023-07-27T02:15:48.283Z,100900.63
2023-07-27T02:18:20.118Z,100897.22
2023-07-27T02:20:47.697Z,100898.28
2023-07-27T02:23:14.829Z,100907.56
2023-07-27T02:25:41.404Z,100906.50
2023-07-27T02:28:12.145Z,100901.88
2023-07-27T02:30:38.885Z,100901.88
2023-07-27T02:33:05.781Z,100908.19
2023-07-27T02:35:32.638Z,100901.25
2023-07-27T02:37:59.389Z,100909.25
2023-07-27T02:40:26.340Z,100903.78
2023-07-27T02:42:52.851Z,100901.03
2023-07-27T02:45:19.399Z,100904.63
2023-07-27T02:47:45.912Z,100899.13
2023-07-27T02:50:12.545Z,100899.13
2023-07-27T02:52:39.079Z,100892.81
2023-07-27T02:55:05.743Z,100891.75
2023-07-27T02:57:34.026Z,100888.19
2023-07-27T03:00:00.556Z,100896.41
2023-07-27T03:02:27.169Z,100893.88
2023-07-27T03:04:54.852Z,100884.81
2023-07-27T03:07:21.614Z,100882.91
2023-07-27T03:09:52.279Z,100882.06
2023-07-27T03:12:18.820Z,100883.75
2023-07-27T03:14:45.285Z,100881.84
2023-07-27T03:17:11.915Z,100888.19
2023-07-27T03:19:38.701Z,100883.75
2023-07-27T03:22:05.305Z,100889.22
2023-07-27T03:24:32.192Z,100898.50
2023-07-27T03:26:58.702Z,100898.72
2023-07-27T03:29:25.514Z,100899.56
2023-07-27T03:31:52.250Z,100904.00
2023-07-27T03:34:19.079Z,100901.44
2023-07-27T03:36:46.801Z,100903.34
2023-07-27T03:39:13.567Z,100898.94
2023-07-27T03:41:40.033Z,100898.94
2023-07-27T03:44:06.596Z,100893.66
2023-07-27T03:46:33.567Z,100890.28
2023-07-27T03:49:00.562Z,100891.34
2023-07-27T03:51:27.286Z,100885.84
2023-07-27T03:53:53.761Z,100890.28
2023-07-27T03:56:20.273Z,100893.84
2023-07-27T03:58:46.920Z,100895.97
2023-07-27T04:01:13.496Z,100895.75
2023-07-27T04:03:39.979Z,100886.91
2023-07-27T04:06:06.615Z,100890.03
2023-07-27T04:08:33.070Z,100895.72
2023-07-27T04:10:59.560Z,100878.47
2023-07-27T04:13:26.082Z,100889.59
2023-07-27T04:15:52.553Z,100886.88
2023-07-27T04:18:19.341Z,100885.81
2023-07-27T04:20:45.950Z,100882.03
2023-07-27T04:23:12.763Z,100880.97
2023-07-27T04:25:39.284Z,100875.72
2023-07-27T04:28:05.768Z,100880.13
2023-07-27T04:30:32.290Z,100876.56
2023-07-27T04:32:58.850Z,100878.22
2023-07-27T04:35:25.388Z,100866.22
2023-07-27T04:37:51.898Z,100869.78
2023-07-27T04:40:20.357Z,100868.13
2023-07-27T04:42:46.876Z,100866.44
2023-07-27T04:45:13.408Z,100867.91
2023-07-27T04:47:39.877Z,100859.06
2023-07-27T04:50:06.930Z,100856.09
2023-07-27T04:52:33.669Z,100862.41
2023-07-27T04:55:00.193Z,100853.38
2023-07-27T04:57:26.728Z,100855.06
2023-07-27T04:59:53.471Z,100856.78
2023-07-27T05:02:20.196Z,100859.53
2023-07-27T05:04:46.965Z,100858.69
2023-07-27T05:07:13.409Z,100858.47
2023-07-27T05:09:39.798Z,100865.22
2023-07-27T05:12:06.399Z,100866.47
2023-07-27T05:14:32.800Z,100860.78
2023-07-27T05:16:59.642Z,100862.50
2023-07-27T05:19:26.150Z,100860.38
2023-07-27T05:21:52.602Z,100860.38
2023-07-27T05:24:19.132Z,100861.03
2023-07-27T05:26:45.690Z,100864.59
2023-07-27T05:29:12.147Z,100854.25
2023-07-27T05:31:38.657Z,100861.41
2023-07-27T05:34:05.453Z,100857.00
2023-07-27T05:36:32.200Z,100863.97
2023-07-27T05:38:59.002Z,100859.94
2023-07-27T05:41:25.538Z,100855.28
2023-07-27T05:43:52.028Z,100855.94
2023-07-27T05:46:18.557Z,100854.03
2023-07-27T05:48:44.985Z,100849.41
2023-07-27T05:51:11.427Z,100849.81
2023-07-27T05:53:37.957Z,100839.69
2023-07-27T05:56:04.573Z,100844.34
2023-07-27T05:58:31.042Z,100843.28
2023-07-27T06:01:01.739Z,100845.84
2023-07-27T06:03:31.852Z,100842.03
2023-07-27T06:05:59.052Z,100841.81
2023-07-27T06:08:25.658Z,100848.13
2023-07-27T06:11:02.113Z,100849.84
2023-07-27T06:13:28.627Z,100844.53
2023-07-27T06:15:55.690Z,100846.25
2023-07-27T06:18:22.170Z,100845.19
2023-07-27T06:20:48.575Z,100846.03
2023-07-27T06:23:15.037Z,100852.34
2023-07-27T06:25:44.818Z,100849.38
2023-07-27T06:28:12.015Z,100855.75
2023-07-27T06:30:41.312Z,100849.19
2023-07-27T06:33:08.108Z,100848.13
2023-07-27T06:35:34.720Z,100856.34
2023-07-27T06:38:01.210Z,100853.63
2023-07-27T06:40:27.628Z,100847.28
2023-07-27T06:42:54.229Z,100858.03
2023-07-27T06:45:21.808Z,100852.56
2023-07-27T06:47:48.627Z,100851.72
2023-07-27T06:50:15.164Z,100848.75
2023-07-27T06:52:41.596Z,100846.66
2023-07-27T06:55:08.223Z,100844.75
2023-07-27T06:57:34.678Z,100845.41
2023-07-27T07:00:01.298Z,100846.00
2023-07-27T07:02:27.881Z,100840.53
2023-07-27T07:04:54.465Z,100843.03
2023-07-27T07:07:21.441Z,100850.25
2023-07-27T07:09:49.665Z,100834.63
2023-07-27T07:12:16.298Z,100833.56
2023-07-27T07:14:45.521Z,100836.31
2023-07-27T07:17:12.271Z,100829.75
2023-07-27T07:19:38.782Z,100828.72
2023-07-27T07:22:05.569Z,100829.56
2023-07-27T07:24:32.080Z,100835.06
2023-07-27T07:26:58.761Z,100821.53
2023-07-27T07:29:25.226Z,100828.91
2023-07-27T07:31:52.293Z,100824.50
2023-07-27T07:34:18.772Z,100825.56
2023-07-27T07:36:45.238Z,100828.31
2023-07-27T07:39:12.090Z,100826.59
2023-07-27T07:41:38.817Z,100830.22
2023-07-27T07:44:08.054Z,100821.97
2023-07-27T07:46:34.956Z,100820.91
2023-07-27T07:49:01.724Z,100811.03
2023-07-27T07:51:28.436Z,100816.50
2023-07-27T07:53:56.864Z,100811.84
2023-07-27T07:56:23.591Z,100799.19
2023-07-27T07:58:52.778Z,100804.66
2023-07-27T08:01:19.676Z,100809.13
2023-07-27T08:03:46.401Z,100808.28
2023-07-27T08:06:13.209Z,100802.78
2023-07-27T08:08:39.738Z,100800.91
2023-07-27T08:11:06.246Z,100804.66
2023-07-27T08:13:32.902Z,100799.19
2023-07-27T08:15:59.471Z,100796.66
2023-07-27T08:18:32.545Z,100799.41
2023-07-27T08:21:10.024Z,100796.66
2023-07-27T08:23:37.174Z,100793.09
2023-07-27T08:26:07.421Z,100792.25
2023-07-27T08:28:33.865Z,100790.56
2023-07-27T08:31:01.875Z,100786.75
2023-07-27T08:33:28.438Z,100782.34
2023-07-27T08:35:55.132Z,100782.34
2023-07-27T08:38:21.903Z,100772.22
2023-07-27T08:40:55.112Z,100769.47
2023-07-27T08:43:21.795Z,100773.47
2023-07-27T08:45:49.265Z,100768.63
2023-07-27T08:48:16.148Z,100758.09
2023-07-27T08:50:43.978Z,100764.19
2023-07-27T08:53:11.014Z,100761.25
2023-07-27T08:55:39.047Z,100757.69
2023-07-27T08:58:05.875Z,100753.03
2023-07-27T09:00:32.733Z,100747.75
2023-07-27T09:03:02.635Z,100747.53
2023-07-27T09:05:39.779Z,100750.28
2023-07-27T09:08:08.036Z,100741.22
2023-07-27T09:10:35.670Z,100744.81
2023-07-27T09:13:02.127Z,100744.81
2023-07-27T09:15:28.745Z,100739.31
2023-07-27T09:17:59.731Z,100737.41
2023-07-27T09:20:26.596Z,100731.94
2023-07-27T09:22:55.712Z,100739.09
2023-07-27T09:25:23.565Z,100731.94
2023-07-27T09:27:53.230Z,100734.44
2023-07-27T09:30:19.879Z,100723.47
2023-07-27T09:32:47.861Z,100730.66
2023-07-27T09:35:15.139Z,100722.41
2023-07-27T09:37:45.837Z,100720.75
2023-07-27T09:40:14.322Z,100716.09
2023-07-27T09:42:41.987Z,100715.06
2023-07-27T09:45:09.804Z,100707.69
2023-07-27T09:47:36.642Z,100716.94
2023-07-27T09:50:03.885Z,100717.81
2023-07-27T09:52:31.088Z,100711.44
2023-07-27T09:54:59.244Z,100710.41
2023-07-27T09:57:26.277Z,100708.72
2023-07-27T09:59:52.913Z,100705.13
2023-07-27T10:02:31.470Z,100701.13
2023-07-27T10:04:59.093Z,100699.44
2023-07-27T10:07:28.466Z,100699.22
2023-07-27T10:10:17.445Z,100702.81
2023-07-27T10:12:44.190Z,100704.94
2023-07-27T10:15:20.643Z,100698.38
2023-07-27T10:17:50.101Z,100691.22
2023-07-27T10:20:27.048Z,100683.84
2023-07-27T10:22:54.114Z,100677.28
2023-07-27T10:25:20.583Z,100680.25
2023-07-27T10:27:57.149Z,100684.69
2023-07-27T10:30:23.679Z,100679.19
2023-07-27T10:33:10.370Z,100678.56
2023-07-27T10:35:55.432Z,100682.16
2023-07-27T10:38:22.458Z,100673.94
2023-07-27T10:40:48.985Z,100668.66
2023-07-27T10:43:21.258Z,100673.94
2023-07-27T10:45:54.627Z,100664.66
2023-07-27T10:48:21.721Z,100660.00
2023-07-27T10:50:49.268Z,100663.81
2023-07-27T10:53:15.987Z,100668.22
2023-07-27T10:55:43.159Z,100672.88
2023-07-27T10:58:11.898Z,100669.91
2023-07-27T11:00:39.023Z,100673.47
2023-07-27T11:03:06.182Z,100675.38
2023-07-27T11:05:33.263Z,100666.31
2023-07-27T11:08:03.310Z,100651.78
2023-07-27T11:10:31.862Z,100660.84
2023-07-27T11:13:01.513Z,100662.97
2023-07-27T11:15:28.683Z,100669.28
2023-07-27T11:17:56.045Z,100662.09
2023-07-27T11:20:23.941Z,100649.47
2023-07-27T11:22:51.523Z,100648.41
2023-07-27T11:25:18.102Z,100643.16
2023-07-27T11:27:48.099Z,100641.25
2023-07-27T11:30:18.871Z,100642.53
2023-07-27T11:33:01.486Z,100638.94
2023-07-27T11:35:28.069Z,100638.53
2023-07-27T11:37:54.628Z,100632.00
2023-07-27T11:40:21.782Z,100634.75
2023-07-27T11:42:48.617Z,100633.66
2023-07-27T11:45:15.216Z,100636.41
2023-07-27T11:47:42.052Z,100635.34
2023-07-27T11:50:10.124Z,100633.66
2023-07-27T11:52:40.871Z,100628.19
2023-07-27T11:55:07.771Z,100623.53
2023-07-27T11:57:34.379Z,100625.22
2023-07-27T12:00:03.785Z,100612.81
2023-07-27T12:02:34.184Z,100605.66
2023-07-27T12:05:02.021Z,100606.09
2023-07-27T12:08:07.124Z,100599.53
2023-07-27T12:10:30.705Z,100605.84
2023-07-27T12:15:35.584Z,100613.88
2023-07-27T12:18:03.255Z,100602.91
2023-07-27T12:30:29.557Z,100597.44
2023-07-27T12:32:56.242Z,100592.78
2023-07-27T12:35:26.138Z,100591.94
2023-07-27T12:37:53.197Z,100591.94
2023-07-27T12:40:20.464Z,100588.13
2023-07-27T12:42:47.099Z,100583.72
2023-07-27T12:45:13.969Z,100578.25
2023-07-27T12:47:44.127Z,100579.06
2023-07-27T12:50:10.988Z,100571.69
2023-07-27T12:52:37.465Z,100570.63
2023-07-27T12:55:04.855Z,100571.47
2023-07-27T12:57:31.867Z,100569.78
2023-07-27T12:59:58.689Z,100571.69
2023-07-27T13:02:25.133Z,100575.28
2023-07-27T13:04:51.928Z,100583.50
2023-07-27T13:07:18.399Z,100577.19
2023-07-27T13:09:44.933Z,100579.91
2023-07-27T13:12:11.410Z,100581.59
2023-07-27T13:14:38.179Z,100577.78
2023-07-27T13:17:04.802Z,100581.34
2023-07-27T13:19:31.928Z,100583.25
2023-07-27T13:21:58.397Z,100574.19
2023-07-27T13:24:24.891Z,100572.28
2023-07-27T13:26:51.439Z,100575.88
2023-07-27T13:29:18.074Z,100569.56
2023-07-27T13:31:44.603Z,100573.13
2023-07-27T13:34:11.151Z,100568.53
2023-07-27T13:36:37.614Z,100568.28
2023-07-27T13:39:04.339Z,100556.09
2023-07-27T13:41:31.122Z,100553.56
2023-07-27T13:43:57.965Z,100548.94
2023-07-27T13:46:25.745Z,100553.34
2023-07-27T13:48:52.398Z,100550.38
2023-07-27T13:51:19.175Z,100546.59
2023-07-27T13:53:45.682Z,100533.91
2023-07-27T13:56:12.088Z,100536.47
2023-07-27T13:58:38.633Z,100531.81
2023-07-27T14:01:05.402Z,100531.81
2023-07-27T14:03:32.023Z,100528.00
2023-07-27T14:05:58.615Z,100522.53
2023-07-27T14:08:25.339Z,100521.69
2023-07-27T14:10:51.935Z,100523.34
2023-07-27T14:13:18.713Z,100519.78
2023-07-27T14:15:45.462Z,100515.13
2023-07-27T14:18:12.121Z,100517.28
2023-07-27T14:20:38.642Z,100516.44
2023-07-27T14:23:05.070Z,100506.31
2023-07-27T14:25:31.868Z,100506.31
2023-07-27T14:27:59.550Z,100502.25
2023-07-27T14:30:26.317Z,100506.06
2023-07-27T14:32:52.906Z,100500.81
2023-07-27T14:35:21.145Z,100505.25
2023-07-27T14:37:48.705Z,100494.28
2023-07-27T14:40:38.315Z,100495.09
2023-07-27T14:43:02.628Z,100490.47
2023-07-27T14:45:29.457Z,100487.72
2023-07-27T14:47:56.310Z,100475.69
2023-07-27T14:50:39.264Z,100484.78
2023-07-27T14:53:06.220Z,100470.19
2023-07-27T14:55:32.672Z,100477.59
2023-07-27T14:58:00.105Z,100467.47
2023-07-27T15:00:35.667Z,100473.81
2023-07-27T15:03:05.760Z,100468.53
2023-07-27T15:05:33.033Z,100460.09
2023-07-27T15:08:00.002Z,100463.69
2023-07-27T15:10:32.083Z,100460.72
2023-07-27T15:13:00.062Z,100458.41
2023-07-27T15:15:27.144Z,100456.50
2023-07-27T15:17:53.849Z,100454.63
2023-07-27T15:20:20.782Z,100452.72
2023-07-27T15:22:47.710Z,100452.09
2023-07-27T15:25:14.283Z,100463.28
2023-07-27T15:27:40.817Z,100457.81
2023-07-27T15:30:09.074Z,100457.16
2023-07-27T15:32:35.626Z,100461.22
2023-07-27T15:35:02.428Z,100458.91
2023-07-27T15:37:29.023Z,100467.34
2023-07-27T15:39:55.587Z,100451.34
2023-07-27T15:42:22.993Z,100444.88
2023-07-27T15:44:49.640Z,100438.75
2023-07-27T15:47:16.130Z,100440.25
2023-07-27T15:49:42.543Z,100438.34
2023-07-27T15:52:09.042Z,100432.66
2023-07-27T15:54:35.524Z,100427.19
2023-07-27T15:57:02.359Z,100415.59
2023-07-27T15:59:28.864Z,100416.66
2023-07-27T16:01:55.470Z,100419.84
2023-07-27T16:04:21.956Z,100411.44
2023-07-27T16:06:48.693Z,100406.41
2023-07-27T16:09:15.465Z,100410.59
2023-07-27T16:11:42.196Z,100398.34
2023-07-27T16:14:08.621Z,100398.59
2023-07-27T16:16:35.454Z,100399.66
2023-07-27T16:19:02.192Z,100398.59
2023-07-27T16:21:28.678Z,100396.91
2023-07-27T16:23:56.245Z,100396.91
2023-07-27T16:26:22.753Z,100390.78
2023-07-27T16:28:49.286Z,100378.16
2023-07-27T16:31:16.251Z,100373.97
2023-07-27T16:33:42.768Z,100373.97
2023-07-27T16:36:12.899Z,100383.03
2023-07-27T16:38:39.637Z,100379.44
2023-07-27T16:41:08.337Z,100374.19
2023-07-27T16:43:35.116Z,100378.84
2023-07-27T16:46:01.932Z,100370.84
2023-07-27T16:48:28.454Z,100377.16
2023-07-27T16:50:55.791Z,100372.53
2023-07-27T16:53:22.315Z,100360.72
2023-07-27T16:55:48.891Z,100366.41
2023-07-27T16:58:15.410Z,100370.22
2023-07-27T17:00:42.182Z,100372.94
2023-07-27T17:03:09.166Z,100364.13
2023-07-27T17:05:40.101Z,100364.13
2023-07-27T17:08:06.909Z,100371.47
2023-07-27T17:10:33.602Z,100361.41
2023-07-27T17:13:00.077Z,100364.97
2023-07-27T17:15:26.617Z,100361.81
2023-07-27T17:17:53.671Z,100359.09
2023-07-27T17:20:20.313Z,100356.13
2023-07-27T17:22:46.850Z,100357.78
2023-07-27T17:25:13.348Z,100345.41
2023-07-27T17:27:40.049Z,100353.59
2023-07-27T17:30:06.855Z,100350.03
2023-07-27T17:32:33.377Z,100347.28
2023-07-27T17:34:59.976Z,100343.25
2023-07-27T17:37:26.952Z,100344.56
2023-07-27T17:39:53.744Z,100348.72
2023-07-27T17:42:23.162Z,100351.47
2023-07-27T17:44:49.643Z,100354.00
2023-07-27T17:47:16.123Z,100351.47
2023-07-27T17:49:43.638Z,100349.56
2023-07-27T17:52:10.108Z,100351.72
2023-07-27T17:54:36.575Z,100337.56
2023-07-27T17:57:03.028Z,100328.53
2023-07-27T17:59:29.782Z,100335.03
2023-07-27T18:01:56.274Z,100331.28
2023-07-27T18:04:22.794Z,100334.63
2023-07-27T18:06:49.502Z,100330.66
2023-07-27T18:09:15.944Z,100332.34
2023-07-27T18:11:42.376Z,100332.75
2023-07-27T18:14:08.929Z,100332.31
2023-07-27T18:16:35.846Z,100321.56
2023-07-27T18:19:02.513Z,100322.81
2023-07-27T18:21:29.071Z,100322.81
2023-07-27T18:23:55.651Z,100312.53
2023-07-27T18:26:22.166Z,100307.69
2023-07-27T18:28:51.524Z,100311.09
2023-07-27T18:31:20.955Z,100310.25
2023-07-27T18:33:50.143Z,100302.66
2023-07-27T18:36:17.169Z,100305.16
2023-07-27T18:38:47.468Z,100303.47
2023-07-27T18:41:15.054Z,100312.31
2023-07-27T18:43:42.439Z,100306.63
2023-07-27T18:46:09.715Z,100308.94
2023-07-27T18:48:36.361Z,100308.28
2023-07-27T18:51:03.628Z,100306.16
2023-07-27T18:53:30.662Z,100306.59
2023-07-27T18:55:57.924Z,100305.16
2023-07-27T18:58:24.413Z,100300.72
2023-07-27T19:00:52.340Z,100295.44
2023-07-27T19:03:19.791Z,100295.25
2023-07-27T19:05:46.480Z,100300.34
2023-07-27T19:08:12.946Z,100302.25
2023-07-27T19:10:39.435Z,100309.19
2023-07-27T19:13:06.180Z,100304.78
2023-07-27T19:15:32.740Z,100302.03
2023-07-27T19:17:59.243Z,100303.47
2023-07-27T19:20:25.776Z,100306.00
2023-07-27T19:22:52.818Z,100309.59
2023-07-27T19:25:19.331Z,100305.38
2023-07-27T19:27:46.426Z,100308.34
2023-07-27T19:30:13.950Z,100303.53
2023-07-27T19:32:40.873Z,100300.81
2023-07-27T19:35:07.822Z,100292.34
2023-07-27T19:37:34.274Z,100289.63
2023-07-27T19:40:00.807Z,100286.03
2023-07-27T19:42:27.578Z,100277.44
2023-07-27T19:44:55.047Z,100281.44
2023-07-27T19:47:21.542Z,100281.69
2023-07-27T19:50:03.966Z,100280.84
2023-07-27T19:52:32.236Z,100279.09
2023-07-27T19:54:58.847Z,100289.66
2023-07-27T19:57:25.530Z,100280.41
2023-07-27T19:59:58.127Z,100277.66
2023-07-27T20:02:25.060Z,100274.53
2023-07-27T20:04:52.153Z,100283.56
2023-07-27T20:07:21.493Z,100273.06
2023-07-27T20:09:49.754Z,100272.22
2023-07-27T20:12:17.324Z,100265.47
2023-07-27T20:14:45.462Z,100261.44
2023-07-27T20:17:12.060Z,100259.53
2023-07-27T20:19:38.632Z,100257.25
2023-07-27T20:22:05.296Z,100253.06
2023-07-27T20:24:32.207Z,100255.38
2023-07-27T20:26:58.700Z,100247.97
2023-07-27T20:29:26.117Z,100241.03
2023-07-27T20:31:52.658Z,100245.28
2023-07-27T20:34:20.130Z,100239.41
2023-07-27T20:36:46.668Z,100233.06
2023-07-27T20:39:13.557Z,100231.59
2023-07-27T20:41:40.339Z,100225.69
2023-07-27T20:44:06.790Z,100226.94
2023-07-27T20:46:35.210Z,100222.16
2023-07-27T20:49:02.162Z,100226.78
2023-07-27T20:51:28.611Z,100229.31
2023-07-27T20:53:55.250Z,100221.31
2023-07-27T20:56:22.749Z,100217.50
2023-07-27T20:58:49.833Z,100207.84
2023-07-27T21:01:16.305Z,100198.19
2023-07-27T21:03:43.467Z,100203.66
2023-07-27T21:06:10.148Z,100203.88
2023-07-27T21:08:37.741Z,100206.63
2023-07-27T21:11:04.834Z,100208.94
2023-07-27T21:13:31.757Z,100201.31
2023-07-27T21:16:01.092Z,100197.97
2023-07-27T21:18:27.827Z,100198.13
2023-07-27T21:20:54.503Z,100205.91
2023-07-27T21:23:21.190Z,100208.81
2023-07-27T21:25:56.138Z,100214.50
2023-07-27T21:28:22.799Z,100217.22
2023-07-27T21:30:49.295Z,100209.25
2023-07-27T21:33:27.109Z,100207.78
2023-07-27T21:35:54.932Z,100205.69
2023-07-27T21:38:21.601Z,100207.19
2023-07-27T21:40:48.150Z,100209.28
2023-07-27T21:43:15.304Z,100203.22
2023-07-27T21:45:42.206Z,100199.66
2023-07-27T21:48:09.018Z,100204.44
2023-07-27T21:50:35.506Z,100197.69
2023-07-27T21:53:01.911Z,100204.00
2023-07-27T21:55:31.479Z,100194.50
2023-07-27T21:57:58.023Z,100193.22
2023-07-27T22:00:24.757Z,100192.97
2023-07-27T22:02:51.292Z,100186.69
2023-07-27T22:05:17.842Z,100179.97
2023-07-27T22:07:45.370Z,100186.50
2023-07-27T22:10:11.820Z,100183.53
2023-07-27T22:12:39.084Z,100181.03
2023-07-27T22:15:05.836Z,100169.25
2023-07-27T22:17:32.309Z,100176.41
2023-07-27T22:19:58.947Z,100171.38
2023-07-27T22:22:25.386Z,100169.09
2023-07-27T22:24:52.224Z,100160.66
2023-07-27T22:27:18.929Z,100151.22
2023-07-27T22:29:45.485Z,100152.47
2023-07-27T22:32:12.234Z,100150.81
2023-07-27T22:34:38.703Z,100143.66
2023-07-27T22:37:05.597Z,100142.00
2023-07-27T22:39:32.241Z,100143.44
2023-07-27T22:41:59.023Z,100141.31
2023-07-27T22:44:25.622Z,100145.69
2023-07-27T22:46:52.187Z,100137.00
2023-07-27T22:49:18.700Z,100135.97
2023-07-27T22:51:45.260Z,100133.22
2023-07-27T22:54:13.155Z,100125.06
2023-07-27T22:56:41.470Z,100131.81
2023-07-27T22:59:08.112Z,100125.06
2023-07-27T23:01:34.712Z,100129.69
2023-07-27T23:04:01.208Z,100124.00
2023-07-27T23:06:27.875Z,100119.97
2023-07-27T23:08:54.659Z,100124.78
2023-07-27T23:11:21.227Z,100120.97
2023-07-27T23:13:47.914Z,100119.53
2023-07-27T23:16:16.804Z,100118.91
2023-07-27T23:18:43.261Z,100121.03
2023-07-27T23:21:09.697Z,100118.06
2023-07-27T23:23:36.415Z,100115.56
2023-07-27T23:26:02.939Z,100110.44
2023-07-27T23:28:29.712Z,100114.41
2023-07-27T23:30:59.669Z,100105.59
2023-07-27T23:33:26.465Z,100101.78
2023-07-27T23:35:53.206Z,100100.97
2023-07-27T23:38:19.973Z,100096.31
2023-07-27T23:40:46.752Z,100095.03
2023-07-27T23:43:13.265Z,100086.97
2023-07-27T23:45:40.026Z,100086.59
2023-07-27T23:48:06.571Z,100068.50
2023-07-27T23:51:02.043Z,100074.81
2023-07-27T23:53:42.528Z,100066.59
2023-07-27T23:58:53.269Z,100067.88
2023-07-27T23:59:26.957Z,100061.94
